• Join FlightAware (Why Join?)
  • Login
  • US Flag 
07:40AM EDT


 

Airport Tracker/Info


-or-


 

Live Flight TrackerFlight Track Log ✈ SWA1533 ✈ 20-Apr-2013 ✈ KLAX - KOAK

Flight Track Log - Related Links

Times and Time Zones

All times are in EDT time to prevent confusion due to time zone crossing. See the SWA1533 flight status page for this flight to view local times or setup timezone preferences in your user account.

Time Position Orientation Groundspeed Altitude Reporting Facility
EDT Latitude Longitude Course Direction KTS MPH feet Rate Location/Type
12:27PM 33.9500 -118.4833 256° West 218 251 2,300  Level Southern California TRACON
12:28PM 33.9333 -118.5667 256° West 280 322 5,100 3,060 Climbing Southern California TRACON
12:29PM 33.9358 -118.6314 273° West 282 325 7,200 2,340 Climbing Los Angeles Center
12:30PM 33.9931 -118.6922 319° Northwest 278 320 8,900 780 Climbing Los Angeles Center
12:31PM 34.0664 -118.6906 North 271 312 8,900 600 Level Los Angeles Center
12:32PM 34.1400 -118.6675 15° North 283 326 10,200 1,860 Climbing Los Angeles Center
12:33PM 34.2172 -118.6781 354° North 277 319 12,800 2,160 Climbing Los Angeles Center
12:34PM 34.3122 -118.6928 353° North 340 391 14,700 1,980 Climbing Los Angeles Center
12:35PM 34.4097 -118.7072 353° North 353 406 16,900 2,100 Climbing Los Angeles Center
12:36PM 34.5122 -118.7233 353° North 369 425 19,100 1,980 Climbing Los Angeles Center
12:37PM 34.6089 -118.7631 341° North 369 425 21,100 1,860 Climbing Los Angeles Center
12:38PM 34.7267 -118.8247 337° Northwest 383 441 23,000 1,740 Climbing Los Angeles Center
12:39PM 34.8250 -118.8819 334° Northwest 391 450 24,700 1,380 Climbing Los Angeles Center
12:40PM 34.8992 -118.9561 321° Northwest 390 449 25,900 1,440 Climbing Los Angeles Center
12:41PM 35.0039 -119.0586 321° Northwest 401 461 27,800 1,260 Climbing Los Angeles Center
12:42PM 35.0911 -119.1442 321° Northwest 403 464 28,600 960 Climbing Los Angeles Center
12:43PM 35.1842 -119.2331 322° Northwest 422 486 29,900 1,440 Climbing Los Angeles Center
12:44PM 35.2731 -119.3197 321° Northwest 415 478 31,600 1,260 Climbing Los Angeles Center
12:45PM 35.3597 -119.4067 321° Northwest 405 466 32,600 960 Climbing Los Angeles Center
12:46PM 35.4094 -119.4567 321° Northwest 406 467 33,200 780 Climbing Oakland Center
12:47PM 35.4972 -119.5428 321° Northwest 406 467 33,900 300 Climbing Oakland Center
12:48PM 35.5828 -119.6292 321° Northwest 403 464 33,900  Level Oakland Center
12:49PM 35.6856 -119.7314 321° Northwest 400 460 33,900  Level Oakland Center
12:50PM 35.7719 -119.8158 322° Northwest 400 460 33,900  Level Oakland Center
12:51PM 35.8572 -119.9014 321° Northwest 398 458 33,900  Level Oakland Center
12:52PM 35.9419 -119.9878 320° Northwest 398 458 33,900  Level Oakland Center
12:53PM 36.0275 -120.0733 321° Northwest 399 459 33,900  Level Oakland Center
12:54PM 36.1133 -120.1597 321° Northwest 401 461 33,900  Level Oakland Center
12:55PM 36.1992 -120.2467 321° Northwest 400 460 33,900  Level Oakland Center
12:56PM 36.2847 -120.3344 320° Northwest 401 461 33,900  Level Oakland Center
12:57PM 36.3867 -120.4403 320° Northwest 399 459 33,900  Level Oakland Center
12:58PM 36.4722 -120.5269 321° Northwest 398 458 33,900 -1,080 Level Oakland Center
12:59PM 36.5556 -120.6136 320° Northwest 394 453 31,800 -2,460 Descending Oakland Center
01:00PM 36.6383 -120.7028 319° Northwest 395 455 28,900 -2,520 Descending Oakland Center
01:01PM 36.7200 -120.7858 321° Northwest 383 441 26,700 -2,220 Descending Oakland Center
01:02PM 36.7956 -120.8667 319° Northwest 361 415 24,400 -2,160 Descending Oakland Center
01:03PM 36.8683 -120.9519 317° Northwest 353 406 22,300 -2,100 Descending Oakland Center
01:04PM 36.9419 -121.0347 318° Northwest 356 410 20,100 -2,160 Descending Oakland Center
01:05PM 37.0128 -121.1169 317° Northwest 347 399 18,000 -2,100 Descending Oakland Center
01:06PM 37.0839 -121.1978 318° Northwest 329 379 15,900 -2,160 Descending Oakland Center
01:07PM 37.1572 -121.2853 316° Northwest 318 366 13,600 -2,100 Descending Oakland Center
01:08PM 37.2203 -121.3572 318° Northwest 308 354 11,700 -1,740 Descending Oakland Center
01:09PM 37.2808 -121.4294 317° Northwest 302 348 10,100 -1,620 Descending Oakland Center
01:10PM 37.3386 -121.4942 318° Northwest 282 325 8,500 -1,320 Descending Oakland Center
01:11PM 37.3944 -121.5614 316° Northwest 271 312 7,500 -720 Descending Oakland Center
01:12PM 37.4167 -121.6000 306° West 242 278 7,500 -840 Level Northern Cal TRACON
01:13PM 37.4667 -121.6500 322° Northwest 221 254 6,300 -780 Descending Northern Cal TRACON
01:14PM 37.4833 -121.7167 288° West 213 245 6,000 -300 Descending Northern Cal TRACON
01:15PM 37.5000 -121.7833 288° West 210 242 5,800 -540 Descending Northern Cal TRACON
01:16PM 37.5333 -121.8500 302° West 207 238 5,000 -420 Descending Northern Cal TRACON
01:17PM 37.5500 -121.9167 288° West 214 246 5,000 -540 Level Northern Cal TRACON
01:18PM 37.5833 -121.9833 302° West 211 243 4,000 -1,020 Descending Northern Cal TRACON
01:19PM 37.6000 -122.0500 288° West 205 236 3,100 -900 Descending Northern Cal TRACON
01:20PM 37.6333 -122.1000 310° West 200 230 2,300 -960 Descending Northern Cal TRACON
01:20PM 37.6525 -122.1436 299° West 193 222 1,400 -900 Descending Oakland Center
01:21PM 37.6792 -122.1803 313° West 166 191 700 -720 Descending Oakland Center
01:24PM 37.7167 -122.2167 270° West  Level FlightAware Approximate
01:31PM 37.7213 -122.2207 270° West  Level Estimated